createdAt,value
2023-05-24T00:03:25.530Z,98.50
2023-05-24T00:07:27.682Z,98.00
2023-05-24T00:11:30.030Z,97.90
2023-05-24T00:15:32.138Z,97.70
2023-05-24T00:19:34.152Z,97.60
2023-05-24T00:23:37.175Z,97.40
2023-05-24T00:27:39.150Z,97.10
2023-05-24T00:31:41.160Z,97.00
2023-05-24T00:35:43.364Z,96.80
2023-05-24T00:39:45.465Z,97.10
2023-05-24T00:43:47.618Z,97.10
2023-05-24T00:47:49.768Z,96.90
2023-05-24T00:51:53.528Z,97.10
2023-05-24T00:55:55.734Z,97.10
2023-05-24T00:59:57.718Z,97.10
2023-05-24T01:04:00.413Z,97.20
2023-05-24T01:08:39.292Z,97.20
2023-05-24T01:12:44.055Z,97.10
2023-05-24T01:17:06.807Z,97.20
2023-05-24T01:21:39.882Z,97.30
2023-05-24T01:26:11.041Z,97.30
2023-05-24T01:30:14.222Z,97.30
2023-05-24T01:34:16.445Z,97.60
2023-05-24T01:38:18.441Z,97.00
2023-05-24T01:42:33.813Z,97.60
2023-05-24T01:46:37.863Z,98.10
2023-05-24T01:50:57.235Z,98.00
2023-05-24T01:55:01.127Z,98.10
2023-05-24T01:59:04.205Z,97.90
2023-05-24T02:03:07.595Z,97.70
2023-05-24T02:07:11.173Z,97.50
2023-05-24T02:11:13.160Z,97.20
2023-05-24T02:15:15.325Z,97.80
2023-05-24T02:19:17.914Z,97.90
2023-05-24T02:23:20.055Z,97.80
2023-05-24T02:27:22.039Z,97.70
2023-05-24T02:31:25.897Z,97.50
2023-05-24T02:35:28.068Z,97.40
2023-05-24T02:39:30.214Z,97.00
2023-05-24T02:43:32.210Z,96.90
2023-05-24T02:47:34.304Z,96.80
2023-05-24T02:51:37.124Z,97.10
2023-05-24T02:55:39.313Z,97.80
2023-05-24T02:59:41.386Z,98.40
2023-05-24T03:03:43.508Z,98.70
2023-05-24T03:07:45.753Z,98.90
2023-05-24T03:11:47.838Z,99.60
2023-05-24T03:15:49.850Z,99.10
2023-05-24T03:19:53.065Z,98.40
2023-05-24T03:23:55.211Z,97.90
2023-05-24T03:27:57.347Z,97.60
2023-05-24T03:31:59.702Z,97.40
2023-05-24T03:36:02.930Z,98.20
2023-05-24T03:40:06.530Z,98.70
2023-05-24T03:44:30.960Z,98.30
2023-05-24T03:48:34.472Z,97.80
2023-05-24T03:52:36.827Z,98.20
2023-05-24T03:56:39.095Z,98.20
2023-05-24T04:00:41.259Z,97.70
2023-05-24T04:04:43.995Z,97.30
2023-05-24T04:08:46.156Z,97.80
2023-05-24T04:12:48.114Z,99.00
2023-05-24T04:16:50.140Z,98.70
2023-05-24T04:20:54.392Z,98.30
2023-05-24T04:24:56.517Z,98.70
2023-05-24T04:28:58.603Z,98.30
2023-05-24T04:33:00.712Z,97.80
2023-05-24T04:37:04.006Z,97.50
2023-05-24T04:41:06.660Z,97.50
2023-05-24T04:45:10.028Z,97.20
2023-05-24T04:49:12.880Z,97.00
2023-05-24T04:53:14.939Z,97.20
2023-05-24T04:57:17.659Z,97.30
2023-05-24T05:01:20.433Z,97.20
2023-05-24T05:05:22.753Z,97.00
2023-05-24T05:09:25.033Z,97.00
2023-05-24T05:13:26.966Z,96.70
2023-05-24T05:17:29.024Z,97.00
2023-05-24T05:21:34.436Z,96.90
2023-05-24T05:25:36.626Z,96.50
2023-05-24T05:29:38.716Z,96.20
2023-05-24T05:33:40.839Z,96.10
2023-05-24T05:37:42.804Z,96.80
2023-05-24T05:41:46.742Z,96.30
2023-05-24T05:45:49.073Z,95.90
2023-05-24T05:49:51.091Z,95.50
2023-05-24T05:53:53.289Z,95.80
2023-05-24T05:57:55.270Z,95.40
2023-05-24T06:01:57.148Z,95.20
2023-05-24T06:05:59.232Z,95.50
2023-05-24T06:10:01.220Z,94.60
2023-05-24T06:14:03.143Z,94.90
2023-05-24T06:18:05.932Z,94.50
2023-05-24T06:22:07.830Z,94.50
2023-05-24T06:26:09.928Z,95.20
2023-05-24T06:30:13.640Z,96.00
2023-05-24T06:34:20.969Z,95.30
2023-05-24T06:38:22.984Z,94.90
2023-05-24T06:42:25.162Z,94.90
2023-05-24T06:46:27.315Z,95.10
2023-05-24T06:50:29.327Z,94.90
2023-05-24T06:54:31.645Z,94.80
2023-05-24T06:58:33.756Z,94.20
2023-05-24T07:02:35.687Z,94.40
2023-05-24T07:06:37.825Z,94.40
2023-05-24T07:10:39.834Z,94.60
2023-05-24T07:14:41.982Z,94.60
2023-05-24T07:18:43.785Z,94.50
2023-05-24T07:22:45.995Z,94.00
2023-05-24T07:26:48.031Z,94.90
2023-05-24T07:30:50.732Z,94.10
2023-05-24T07:34:52.999Z,94.20
2023-05-24T07:38:55.465Z,94.60
2023-05-24T07:42:57.439Z,94.40
2023-05-24T07:46:59.523Z,94.70
2023-05-24T07:51:01.418Z,95.00
2023-05-24T07:55:04.088Z,93.80
2023-05-24T07:59:06.810Z,93.30
2023-05-24T08:03:09.089Z,93.60
2023-05-24T08:07:11.141Z,93.60
2023-05-24T08:11:13.217Z,94.50
2023-05-24T08:15:15.106Z,93.90
2023-05-24T08:19:17.033Z,94.50
2023-05-24T08:23:19.127Z,94.30
2023-05-24T08:27:22.575Z,94.50
2023-05-24T08:31:24.593Z,94.60
2023-05-24T08:35:27.007Z,94.10
2023-05-24T08:39:28.929Z,94.00
2023-05-24T08:43:32.851Z,93.70
2023-05-24T08:47:36.636Z,94.20
2023-05-24T08:51:40.056Z,94.60
2023-05-24T08:55:44.055Z,93.90
2023-05-24T08:59:46.422Z,94.00
2023-05-24T09:03:50.929Z,94.10
2023-05-24T09:07:55.719Z,93.30
2023-05-24T09:12:02.245Z,93.20
2023-05-24T09:16:06.275Z,93.70
2023-05-24T09:20:10.837Z,93.50
2023-05-24T09:24:13.363Z,94.00
2023-05-24T09:28:17.835Z,92.80
2023-05-24T09:32:24.607Z,92.40
2023-05-24T09:36:30.091Z,93.20
2023-05-24T09:40:32.118Z,92.30
2023-05-24T09:44:34.268Z,92.40
2023-05-24T09:48:36.138Z,92.00
2023-05-24T09:52:39.094Z,92.30
2023-05-24T09:56:42.007Z,92.50
2023-05-24T10:00:44.257Z,92.10
2023-05-24T10:04:47.226Z,91.90
2023-05-24T10:08:50.353Z,92.00
2023-05-24T10:12:54.222Z,91.90
2023-05-24T10:16:56.482Z,91.60
2023-05-24T10:21:00.994Z,92.50
2023-05-24T10:25:06.735Z,91.60
2023-05-24T10:29:18.318Z,91.60
2023-05-24T10:33:23.622Z,91.60
2023-05-24T10:37:29.351Z,92.70
2023-05-24T10:41:42.021Z,92.50
2023-05-24T10:45:50.119Z,91.90
2023-05-24T10:49:59.106Z,91.10
2023-05-24T10:54:19.953Z,90.50
2023-05-24T10:58:32.867Z,90.40
2023-05-24T11:02:38.172Z,90.90
2023-05-24T11:06:50.605Z,90.50
2023-05-24T11:11:28.673Z,90.20
2023-05-24T11:15:33.280Z,90.80
2023-05-24T11:19:36.832Z,90.90
2023-05-24T11:23:38.972Z,91.20
2023-05-24T11:27:45.720Z,90.50
2023-05-24T11:31:49.268Z,90.30
2023-05-24T11:35:53.147Z,90.40
2023-05-24T11:39:55.138Z,91.20
2023-05-24T11:43:57.272Z,90.50
2023-05-24T11:48:03.886Z,90.60
2023-05-24T11:52:07.502Z,91.80
2023-05-24T11:56:09.657Z,91.20
2023-05-24T12:00:17.176Z,91.30
2023-05-24T12:04:19.503Z,91.40
2023-05-24T12:08:23.257Z,91.80
2023-05-24T12:12:30.802Z,91.60
2023-05-24T12:16:36.788Z,91.30
2023-05-24T12:20:39.201Z,91.20
2023-05-24T12:24:42.465Z,92.00
2023-05-24T12:28:44.663Z,92.50
2023-05-24T12:32:48.437Z,92.70
2023-05-24T12:36:50.515Z,92.60
2023-05-24T12:41:08.243Z,92.10
2023-05-24T12:45:14.955Z,92.50
2023-05-24T12:49:17.291Z,91.40
2023-05-24T12:53:20.264Z,91.90
2023-05-24T12:57:22.699Z,92.00
2023-05-24T13:01:25.607Z,92.10
2023-05-24T13:05:29.074Z,91.70
2023-05-24T13:09:31.298Z,91.60
2023-05-24T13:13:33.445Z,92.30
2023-05-24T13:17:36.276Z,92.10
2023-05-24T13:21:39.156Z,91.10
2023-05-24T13:25:41.373Z,91.10
2023-05-24T13:29:59.129Z,91.70
2023-05-24T13:34:02.654Z,91.80
2023-05-24T13:38:04.828Z,91.60
2023-05-24T13:42:07.230Z,92.00
2023-05-24T13:46:10.334Z,91.30
2023-05-24T13:50:14.523Z,90.70
2023-05-24T13:54:17.600Z,90.70
2023-05-24T13:58:19.736Z,90.30
2023-05-24T14:02:22.066Z,90.50
2023-05-24T14:06:24.346Z,88.80
2023-05-24T14:10:26.954Z,87.20
2023-05-24T14:18:34.253Z,88.70
2023-05-24T14:22:36.298Z,87.40
2023-05-24T14:26:38.510Z,86.40
2023-05-24T14:30:41.956Z,84.50
2023-05-24T14:34:44.272Z,80.30
2023-05-24T14:38:46.799Z,76.50
2023-05-24T14:42:49.087Z,79.20
2023-05-24T14:46:53.115Z,77.30
2023-05-24T14:50:57.458Z,76.70
2023-05-24T14:54:59.402Z,74.10
2023-05-24T14:59:01.354Z,74.40
2023-05-24T15:03:03.514Z,71.80
2023-05-24T15:07:06.015Z,70.10
2023-05-24T15:11:08.208Z,71.20
2023-05-24T15:15:10.799Z,71.00
2023-05-24T15:19:13.374Z,70.00
2023-05-24T15:23:15.575Z,69.50
2023-05-24T15:27:17.554Z,68.10
2023-05-24T15:31:19.665Z,69.20
2023-05-24T15:35:21.717Z,67.00
2023-05-24T15:39:23.697Z,67.70
2023-05-24T15:43:25.709Z,68.10
2023-05-24T15:47:29.591Z,68.00
2023-05-24T15:52:02.930Z,68.00
2023-05-24T15:55:55.623Z,66.00
2023-05-24T15:59:57.531Z,67.70
2023-05-24T16:04:00.722Z,65.90
2023-05-24T16:08:02.952Z,65.20
2023-05-24T16:12:07.203Z,63.70
2023-05-24T16:16:09.306Z,63.10
2023-05-24T16:20:13.179Z,66.80
2023-05-24T16:24:15.384Z,68.10
2023-05-24T16:28:17.848Z,72.00
2023-05-24T16:32:19.877Z,74.40
2023-05-24T16:36:21.825Z,74.80
2023-05-24T16:40:23.813Z,72.20
2023-05-24T16:44:25.708Z,73.20
2023-05-24T16:48:28.721Z,73.30
2023-05-24T16:52:30.985Z,73.20
2023-05-24T16:56:33.048Z,71.00
2023-05-24T17:00:35.021Z,70.90
2023-05-24T17:04:36.918Z,73.40
2023-05-24T17:08:39.139Z,73.90
2023-05-24T17:12:41.327Z,73.30
2023-05-24T17:16:43.764Z,73.90
2023-05-24T17:20:46.059Z,74.40
2023-05-24T17:24:48.518Z,74.00
2023-05-24T17:28:50.650Z,76.80
2023-05-24T17:32:52.668Z,78.30
2023-05-24T17:36:54.498Z,77.80
2023-05-24T17:40:59.208Z,77.70
2023-05-24T17:45:01.662Z,76.70
2023-05-24T17:49:04.449Z,77.90
2023-05-24T17:53:13.213Z,79.40
2023-05-24T17:57:25.416Z,79.50
2023-05-24T18:01:28.975Z,79.80
2023-05-24T18:05:31.283Z,81.00
2023-05-24T18:09:33.342Z,80.40
2023-05-24T18:13:37.073Z,79.50
2023-05-24T18:17:39.001Z,79.60
2023-05-24T18:21:41.095Z,80.10
2023-05-24T18:25:44.945Z,80.50
2023-05-24T18:29:47.208Z,81.00
2023-05-24T18:33:49.311Z,80.00
2023-05-24T18:37:51.347Z,80.20
2023-05-24T18:41:53.319Z,80.20
2023-05-24T18:45:55.295Z,80.30
2023-05-24T18:49:59.575Z,80.40
2023-05-24T18:54:01.570Z,80.30
2023-05-24T18:58:03.569Z,80.40
2023-05-24T19:02:06.276Z,81.30
2023-05-24T19:06:08.465Z,83.10
2023-05-24T19:10:10.844Z,83.10
2023-05-24T19:14:13.732Z,82.70
2023-05-24T19:18:15.597Z,84.00
2023-05-24T19:22:17.601Z,84.10
2023-05-24T19:26:19.677Z,84.80
2023-05-24T19:30:21.663Z,83.80
2023-05-24T19:34:23.828Z,83.70
2023-05-24T19:38:26.295Z,85.50
2023-05-24T19:42:28.233Z,86.40
2023-05-24T19:46:30.483Z,84.20
2023-05-24T19:50:32.466Z,83.90
2023-05-24T19:54:34.553Z,84.00
2023-05-24T19:58:36.695Z,84.80
2023-05-24T20:02:38.892Z,85.30
2023-05-24T20:06:41.052Z,84.90
2023-05-24T20:10:43.174Z,84.30
2023-05-24T20:14:45.389Z,84.40
2023-05-24T20:18:47.331Z,84.10
2023-05-24T20:22:49.274Z,84.20
2023-05-24T20:26:51.202Z,84.40
2023-05-24T20:30:53.138Z,84.30
2023-05-24T20:34:55.283Z,85.30
2023-05-24T20:38:57.283Z,85.30
2023-05-24T20:42:59.286Z,85.00
2023-05-24T20:47:01.301Z,85.20
2023-05-24T20:51:03.416Z,85.90
2023-05-24T20:55:05.906Z,85.70
2023-05-24T20:59:07.959Z,85.30
2023-05-24T21:03:10.062Z,85.20
2023-05-24T21:07:12.264Z,85.50
2023-05-24T21:11:14.354Z,86.00
2023-05-24T21:15:16.656Z,85.90
2023-05-24T21:19:18.653Z,85.40
2023-05-24T21:23:20.648Z,85.50
2023-05-24T21:27:22.656Z,87.00
2023-05-24T21:31:24.801Z,87.10
2023-05-24T21:35:27.899Z,87.70
2023-05-24T21:39:29.819Z,88.20
2023-05-24T21:43:32.200Z,87.50
2023-05-24T21:47:36.026Z,87.20
2023-05-24T21:51:38.153Z,87.30
2023-05-24T21:55:40.385Z,87.00
2023-05-24T21:59:42.453Z,87.50
2023-05-24T22:03:44.549Z,87.50
2023-05-24T22:07:46.676Z,87.40
2023-05-24T22:11:48.866Z,89.00
2023-05-24T22:15:50.811Z,89.30
2023-05-24T22:19:53.299Z,89.00
2023-05-24T22:23:55.369Z,89.30
2023-05-24T22:27:57.469Z,89.30
2023-05-24T22:31:59.409Z,89.80
2023-05-24T22:36:02.047Z,89.80
2023-05-24T22:40:04.822Z,89.80
2023-05-24T22:44:07.007Z,89.80
2023-05-24T22:48:10.426Z,89.50
2023-05-24T22:52:12.477Z,89.00
2023-05-24T22:56:14.672Z,89.00
2023-05-24T23:00:17.218Z,90.00
2023-05-24T23:04:21.639Z,90.20
2023-05-24T23:08:25.987Z,90.10
2023-05-24T23:12:28.159Z,90.20
2023-05-24T23:16:31.577Z,90.10
2023-05-24T23:20:40.092Z,89.60
2023-05-24T23:24:42.697Z,89.60
2023-05-24T23:28:45.255Z,89.30
2023-05-24T23:32:47.338Z,89.40
2023-05-24T23:36:49.180Z,89.30
2023-05-24T23:40:51.131Z,89.10
2023-05-24T23:44:53.017Z,88.40
2023-05-24T23:48:54.959Z,88.30
2023-05-24T23:52:56.901Z,87.80
2023-05-24T23:56:58.845Z,87.00
